Time;durP1;ratioP1;P1;durP2;ratioP2;P2;SDS_P1;SDS_P2;PMS_P1;PMS_P2;Temp;Humidity;BMP_temperature;BMP_pressure;BME280_temperature;BME280_humidity;BME280_pressure;Samples;Min_cycle;Max_cycle;Signal;HPM_P1;HPM_P2
2021/05/28 00:02:04;;;;;;;8.10;7.37;;;;;;;18.60;89.72;99641.94;1579638;90;21848;-75
2021/05/28 00:04:31;;;;;;;6.90;6.40;;;;;;;18.51;89.32;99647.79;1578002;90;21538;-76
2021/05/28 00:06:58;;;;;;;10.32;8.85;;;;;;;18.35;89.60;99638.33;1553073;91;20981;-78
2021/05/28 00:09:24;;;;;;;11.45;10.25;;;;;;;18.22;90.26;99640.49;1556484;90;21105;-75
2021/05/28 00:11:52;;;;;;;12.58;11.38;;;;;;;18.11;91.06;99637.14;1574335;91;21629;-76
2021/05/28 00:14:19;;;;;;;12.13;11.12;;;;;;;18.04;91.96;99637.27;1579002;90;21030;-69
2021/05/28 00:16:45;;;;;;;10.00;7.62;;;;;;;18.02;92.86;99640.31;1579222;90;21110;-74
2021/05/28 00:19:12;;;;;;;8.40;6.75;;;;;;;18.09;93.21;99643.43;1565923;91;21672;-74
2021/05/28 00:21:39;;;;;;;8.10;7.30;;;;;;;18.18;93.11;99636.19;1562766;91;21027;-74
2021/05/28 00:24:08;;;;;;;8.03;7.22;;;;;;;18.28;92.82;99633.27;1562703;91;21137;-75
2021/05/28 00:26:34;;;;;;;14.47;10.72;;;;;;;18.30;92.06;99632.42;1578866;89;20998;-74
2021/05/28 00:29:03;;;;;;;10.40;9.45;;;;;;;18.22;91.94;99632.33;1573737;91;21041;-75
2021/05/28 00:31:30;;;;;;;10.20;9.03;;;;;;;18.20;92.37;99638.61;1608810;88;21589;-75
2021/05/28 00:33:57;;;;;;;11.38;9.93;;;;;;;18.13;92.70;99639.00;1580379;89;21168;-73
2021/05/28 00:36:24;;;;;;;15.10;13.03;;;;;;;18.06;93.11;99633.16;1579477;90;21674;-73
2021/05/28 00:38:50;;;;;;;14.55;13.15;;;;;;;18.02;93.64;99634.06;1557760;90;21100;-72
2021/05/28 00:41:18;;;;;;;14.43;13.20;;;;;;;17.98;94.15;99633.86;1575421;91;21036;-73
2021/05/28 00:43:44;;;;;;;14.85;13.30;;;;;;;18.05;94.72;99636.98;1557649;90;21029;-74
2021/05/28 00:46:11;;;;;;;18.15;13.95;;;;;;;18.13;94.64;99630.05;1564956;90;21482;-74
2021/05/28 00:48:37;;;;;;;12.28;11.18;;;;;;;18.20;94.72;99631.80;1555914;90;20966;-73
2021/05/28 00:51:04;;;;;;;13.58;12.18;;;;;;;18.23;94.42;99625.20;1555996;92;21057;-73
2021/05/28 00:53:31;;;;;;;13.83;11.93;;;;;;;18.17;94.03;99626.97;1569294;90;21064;-75
2021/05/28 00:55:59;;;;;;;13.70;12.40;;;;;;;18.08;94.18;99622.76;1556544;90;21086;-73
2021/05/28 00:58:25;;;;;;;13.70;12.33;;;;;;;18.00;94.45;99622.10;1550870;89;21493;-74
2021/05/28 01:00:52;;;;;;;16.02;13.72;;;;;;;17.96;94.75;99620.28;1544381;91;21611;-73
2021/05/28 01:03:19;;;;;;;15.20;13.72;;;;;;;17.93;94.99;99619.53;1523414;93;21125;-74
2021/05/28 01:05:45;;;;;;;17.23;13.05;;;;;;;17.91;95.28;99619.02;1559703;91;21245;-74
2021/05/28 01:08:11;;;;;;;16.00;13.48;;;;;;;17.89;95.50;99618.52;1568580;90;21069;-74
2021/05/28 01:10:40;;;;;;;17.62;14.07;;;;;;;17.82;95.84;99616.18;1565926;91;21637;-74
2021/05/28 01:13:09;;;;;;;14.47;13.08;;;;;;;17.82;96.41;99611.55;1567751;90;20959;-73
2021/05/28 01:15:38;;;;;;;13.05;11.78;;;;;;;17.87;96.58;99612.01;1567055;91;20998;-74
2021/05/28 01:18:08;;;;;;;13.80;12.60;;;;;;;17.85;96.25;99610.13;1565795;91;21025;-75
2021/05/28 01:20:35;;;;;;;13.72;12.43;;;;;;;17.77;96.19;99605.39;1568237;91;21086;-74
2021/05/28 01:23:03;;;;;;;13.93;12.63;;;;;;;17.67;96.46;99611.81;1567813;91;22111;-74
2021/05/28 01:25:31;;;;;;;15.70;13.72;;;;;;;17.65;97.07;99609.92;1563149;88;27492;-75
2021/05/28 01:27:57;;;;;;;14.68;13.18;;;;;;;17.65;97.46;99619.45;1593341;90;21125;-73
2021/05/28 01:30:26;;;;;;;15.70;14.03;;;;;;;17.68;97.70;99612.62;1549122;90;21057;-72
2021/05/28 01:32:52;;;;;;;15.18;13.70;;;;;;;17.68;97.87;99613.98;1548035;91;21043;-72
2021/05/28 01:35:19;;;;;;;19.02;12.33;;;;;;;17.66;98.10;99612.09;1545722;91;21083;-73
2021/05/28 01:37:45;;;;;;;14.20;12.70;;;;;;;17.67;98.27;99616.44;1564797;91;21599;-72
2021/05/28 01:40:13;;;;;;;14.58;12.53;;;;;;;17.68;98.40;99615.34;1560345;91;21119;-73
2021/05/28 01:42:39;;;;;;;12.37;11.18;;;;;;;17.68;98.40;99614.80;1591973;88;20996;-73
2021/05/28 01:45:07;;;;;;;16.70;13.75;;;;;;;17.68;98.60;99608.54;1580193;90;21075;-74
2021/05/28 01:47:34;;;;;;;13.03;11.78;;;;;;;17.71;98.79;99603.85;1591857;88;21112;-74
2021/05/28 01:50:00;;;;;;;14.45;12.98;;;;;;;17.77;98.64;99617.08;1590948;90;21064;-76
2021/05/28 01:52:27;;;;;;;21.00;18.90;;;;;;;17.73;98.30;99625.59;1590541;89;21017;-73
2021/05/28 01:54:53;;;;;;;13.40;12.03;;;;;;;17.70;98.30;99620.72;1559574;92;21087;-74
2021/05/28 01:57:20;;;;;;;16.80;14.38;;;;;;;17.71;98.56;99612.02;1591100;89;21830;-74
2021/05/28 01:59:48;;;;;;;14.63;13.32;;;;;;;17.69;98.14;99613.69;1594422;89;21190;-73
2021/05/28 02:02:14;;;;;;;16.48;14.98;;;;;;;17.68;98.30;99618.06;1582746;89;21132;-73
2021/05/28 02:04:42;;;;;;;16.75;15.13;;;;;;;17.65;98.21;99614.59;1583327;89;21029;-73
2021/05/28 02:07:10;;;;;;;16.20;14.60;;;;;;;17.61;98.32;99610.82;1595001;88;21166;-73
2021/05/28 02:09:37;;;;;;;17.25;14.93;;;;;;;17.59;98.46;99611.14;1582684;89;21131;-74
2021/05/28 02:12:06;;;;;;;16.17;14.63;;;;;;;17.59;98.56;99614.41;1595971;89;21114;-72
2021/05/28 02:14:34;;;;;;;15.60;13.95;;;;;;;17.57;98.79;99610.59;1594832;89;21747;-73
2021/05/28 02:17:00;;;;;;;15.28;13.78;;;;;;;17.62;99.12;99611.08;1596034;89;21128;-74
2021/05/28 02:19:27;;;;;;;16.42;14.93;;;;;;;17.63;98.88;99614.06;1596416;89;21614;-73
2021/05/28 02:21:53;;;;;;;15.70;14.23;;;;;;;17.63;98.83;99614.88;1596973;89;21020;-73
2021/05/28 02:24:22;;;;;;;15.93;14.45;;;;;;;17.62;98.82;99606.45;1584742;89;21241;-73
2021/05/28 02:26:50;;;;;;;16.30;14.70;;;;;;;17.60;98.50;99602.44;1598338;89;21029;-75
2021/05/28 02:29:16;;;;;;;17.02;15.05;;;;;;;17.57;98.61;99605.70;1598546;89;21041;-72
2021/05/28 02:31:43;;;;;;;17.10;15.38;;;;;;;17.55;98.87;99597.86;1596311;89;21152;-74
2021/05/28 02:34:09;;;;;;;14.65;13.18;;;;;;;17.54;99.07;99606.30;1584973;89;21017;-76
2021/05/28 02:36:36;;;;;;;15.55;13.98;;;;;;;17.50;99.13;99600.66;1583337;89;21104;-73
2021/05/28 02:39:04;;;;;;;23.40;16.60;;;;;;;17.41;99.18;99605.13;1583372;89;21151;-79
2021/05/28 02:41:31;;;;;;;18.35;15.43;;;;;;;17.44;100.00;99605.37;1593889;88;21076;-73
2021/05/28 02:43:58;;;;;;;17.98;16.12;;;;;;;17.57;100.00;99601.62;1593359;90;21108;-74
2021/05/28 02:46:24;;;;;;;22.22;18.40;;;;;;;17.61;99.84;99606.74;1593046;89;21146;-74
2021/05/28 02:48:51;;;;;;;25.37;17.32;;;;;;;17.62;99.70;99603.73;1594640;89;21776;-73
2021/05/28 02:51:20;;;;;;;21.65;18.37;;;;;;;17.68;99.80;99609.34;1594523;90;21093;-74
2021/05/28 02:53:47;;;;;;;28.50;18.77;;;;;;;17.69;99.46;99609.61;1582857;89;21079;-74
2021/05/28 02:56:13;;;;;;;30.52;18.90;;;;;;;17.67;99.39;99610.45;1583260;89;21072;-72
2021/05/28 02:58:40;;;;;;;25.52;14.78;;;;;;;17.68;99.66;99614.80;1603097;89;21061;-72
2021/05/28 03:01:08;;;;;;;28.00;16.70;;;;;;;17.70;99.75;99603.04;1610627;89;21005;-75
2021/05/28 03:03:35;;;;;;;26.30;16.40;;;;;;;17.66;99.70;99601.22;1603147;87;21013;-73
2021/05/28 03:06:02;;;;;;;38.23;19.07;;;;;;;17.61;99.73;99594.50;1585181;90;21041;-73
2021/05/28 03:08:30;;;;;;;37.75;16.87;;;;;;;17.55;100.00;99596.50;1572244;90;21081;-74
2021/05/28 03:10:57;;;;;;;38.35;18.48;;;;;;;17.53;100.00;99588.36;1548510;91;21112;-74
2021/05/28 03:13:23;;;;;;;22.48;13.48;;;;;;;17.51;100.00;99590.56;1584216;90;21163;-73
2021/05/28 03:15:51;;;;;;;24.72;16.48;;;;;;;17.46;100.00;99591.45;1580914;90;21094;-75
2021/05/28 03:18:22;;;;;;;25.37;16.37;;;;;;;17.40;100.00;99582.61;1562686;91;21881;-74
2021/05/28 03:21:18;;;;;;;25.27;17.32;;;;;;;17.39;100.00;99585.06;1583608;90;21645;-76
2021/05/28 03:23:26;;;;;;;29.75;15.15;;;;;;;17.38;100.00;99583.44;1583892;90;21073;-73
2021/05/28 03:25:53;;;;;;;32.15;16.73;;;;;;;17.34;100.00;99571.55;1586485;90;21625;-72
2021/05/28 03:28:19;;;;;;;31.48;17.67;;;;;;;17.34;100.00;99582.97;1585681;90;21013;-73
2021/05/28 03:30:45;;;;;;;24.77;17.48;;;;;;;17.34;100.00;99583.78;1585674;89;21026;-74
2021/05/28 03:33:12;;;;;;;35.52;24.52;;;;;;;17.33;100.00;99585.42;1572016;90;21638;-73
2021/05/28 03:35:38;;;;;;;29.35;23.75;;;;;;;17.32;100.00;99586.53;1587025;90;21717;-73
2021/05/28 03:38:05;;;;;;;31.73;22.80;;;;;;;17.30;100.00;99594.19;1572584;90;21049;-73
2021/05/28 03:40:31;;;;;;;28.30;22.75;;;;;;;17.30;100.00;99597.72;1586762;90;21049;-74
2021/05/28 03:42:57;;;;;;;22.35;16.77;;;;;;;17.40;100.00;99598.11;1577254;90;21104;-76
2021/05/28 03:45:24;;;;;;;24.10;20.27;;;;;;;17.46;100.00;99597.48;1562661;90;21120;-74
2021/05/28 03:47:50;;;;;;;23.38;20.17;;;;;;;17.44;100.00;99595.85;1562585;91;21100;-73
2021/05/28 03:50:16;;;;;;;26.60;21.05;;;;;;;17.48;100.00;99597.42;1565674;90;21942;-73
2021/05/28 03:52:43;;;;;;;24.47;19.98;;;;;;;17.48;100.00;99596.06;1577973;90;21610;-74
2021/05/28 03:55:11;;;;;;;18.15;16.25;;;;;;;17.49;100.00;99599.04;1578969;89;21127;-75
2021/05/28 03:57:37;;;;;;;17.67;15.78;;;;;;;17.53;100.00;99601.41;1536749;93;21106;-72
2021/05/28 04:00:06;;;;;;;18.12;15.08;;;;;;;17.52;100.00;99600.34;1588959;89;21147;-74
2021/05/28 04:02:34;;;;;;;19.12;16.85;;;;;;;17.52;100.00;99598.44;1564611;91;20997;-71
2021/05/28 04:05:01;;;;;;;15.63;14.10;;;;;;;17.49;100.00;99602.30;1578139;90;21100;-76
2021/05/28 04:07:28;;;;;;;41.13;36.53;;;;;;;17.51;100.00;99597.36;1585654;89;21110;-74
2021/05/28 04:09:55;;;;;;;20.35;18.50;;;;;;;17.48;100.00;99602.86;1585395;89;21118;-76
2021/05/28 04:12:21;;;;;;;18.77;16.87;;;;;;;17.49;100.00;99600.40;1581108;90;21712;-72
2021/05/28 04:14:48;;;;;;;19.85;17.85;;;;;;;17.53;100.00;99600.61;1562298;91;21113;-72
2021/05/28 04:17:15;;;;;;;19.90;17.82;;;;;;;17.60;100.00;99601.85;1562306;91;21124;-72
2021/05/28 04:19:41;;;;;;;18.87;17.10;;;;;;;17.58;100.00;99599.16;1584413;90;21728;-70
2021/05/28 04:22:08;;;;;;;19.40;17.25;;;;;;;17.52;100.00;99603.06;1586346;90;21085;-70
2021/05/28 04:24:34;;;;;;;16.52;14.85;;;;;;;17.52;100.00;99601.70;1585949;90;21613;-72
2021/05/28 04:27:01;;;;;;;18.07;16.17;;;;;;;17.56;100.00;99608.97;1571025;90;21714;-74
2021/05/28 04:29:28;;;;;;;16.60;13.85;;;;;;;17.61;100.00;99606.74;1585491;90;21050;-73
2021/05/28 04:31:54;;;;;;;19.62;17.52;;;;;;;17.63;100.00;99612.70;1571273;90;21660;-71
2021/05/28 04:34:20;;;;;;;19.27;16.93;;;;;;;17.59;100.00;99613.86;1586760;89;21029;-70
2021/05/28 04:36:47;;;;;;;16.00;14.43;;;;;;;17.60;100.00;99613.31;1586787;90;21669;-70
2021/05/28 04:39:14;;;;;;;15.55;13.98;;;;;;;17.60;100.00;99605.16;1586781;90;21084;-71
2021/05/28 04:41:40;;;;;;;21.57;16.82;;;;;;;17.60;100.00;99612.73;1586640;90;21653;-72
2021/05/28 04:44:08;;;;;;;18.27;16.42;;;;;;;17.62;100.00;99611.08;1562281;90;21121;-77
2021/05/28 04:46:35;;;;;;;17.67;15.98;;;;;;;17.65;100.00;99607.79;1568559;90;21625;-71
2021/05/28 04:49:01;;;;;;;17.98;16.20;;;;;;;17.70;100.00;99606.31;1562225;91;21096;-72
2021/05/28 04:51:27;;;;;;;18.23;16.37;;;;;;;17.80;100.00;99608.86;1565455;90;21073;-74
2021/05/28 04:53:54;;;;;;;18.62;15.60;;;;;;;17.82;100.00;99613.45;1566190;90;21031;-73
2021/05/28 04:56:21;;;;;;;17.90;15.75;;;;;;;17.81;100.00;99614.56;1562416;91;21618;-71
2021/05/28 04:58:47;;;;;;;19.05;15.45;;;;;;;17.88;100.00;99614.18;1548390;91;21024;-72
2021/05/28 05:01:14;;;;;;;13.28;11.25;;;;;;;18.00;100.00;99616.66;1562779;90;21126;-76
2021/05/28 05:03:40;;;;;;;17.62;14.73;;;;;;;18.06;100.00;99625.55;1571246;90;21017;-73
2021/05/28 05:06:07;;;;;;;18.25;16.45;;;;;;;18.01;100.00;99620.19;1571223;90;21679;-71
2021/05/28 05:08:36;;;;;;;15.68;14.20;;;;;;;18.05;100.00;99614.39;1571155;90;21138;-72
2021/05/28 05:11:03;;;;;;;15.72;13.28;;;;;;;18.15;100.00;99615.56;1584020;90;21000;-69
2021/05/28 05:13:29;;;;;;;13.13;11.88;;;;;;;18.28;100.00;99615.57;1571326;90;21633;-71
2021/05/28 05:15:58;;;;;;;14.13;12.80;;;;;;;18.37;98.88;99616.25;1585436;89;20990;-71
2021/05/28 05:18:25;;;;;;;17.00;14.53;;;;;;;18.27;97.83;99611.23;1585271;90;21054;-74
2021/05/28 05:20:53;;;;;;;13.45;12.05;;;;;;;18.19;97.70;99617.38;1585379;90;20997;-72
2021/05/28 05:23:19;;;;;;;14.83;13.40;;;;;;;18.17;98.09;99613.36;1586389;90;21077;-73
2021/05/28 05:25:46;;;;;;;13.80;12.40;;;;;;;18.13;98.07;99609.05;1586881;90;21045;-73
2021/05/28 05:28:12;;;;;;;14.40;12.95;;;;;;;18.13;98.36;99602.83;1586794;90;21858;-74
2021/05/28 05:30:39;;;;;;;13.85;10.10;;;;;;;18.14;98.19;99608.50;1585896;90;21055;-72
2021/05/28 05:33:07;;;;;;;16.52;14.68;;;;;;;18.17;98.16;99610.09;1585729;90;21109;-72
2021/05/28 05:35:34;;;;;;;15.60;14.18;;;;;;;18.14;98.12;99607.14;1585561;90;21598;-75
2021/05/28 05:38:01;;;;;;;12.68;11.45;;;;;;;18.14;98.22;99614.76;1585437;90;21069;-73
2021/05/28 05:40:28;;;;;;;10.90;9.90;;;;;;;18.15;98.28;99610.13;1585742;90;21205;-73
2021/05/28 05:42:54;;;;;;;12.00;10.90;;;;;;;18.12;97.79;99614.27;1585895;89;21049;-71
2021/05/28 05:45:20;;;;;;;12.47;11.30;;;;;;;18.04;97.92;99614.95;1585538;89;21062;-71
2021/05/28 05:47:47;;;;;;;13.03;11.03;;;;;;;17.96;98.52;99607.48;1585451;89;21680;-72
2021/05/28 05:50:15;;;;;;;13.58;12.28;;;;;;;17.92;98.77;99610.56;1563939;90;21096;-71
2021/05/28 05:52:42;;;;;;;11.55;9.55;;;;;;;17.87;98.97;99618.81;1573796;90;21685;-71
2021/05/28 05:55:09;;;;;;;12.47;11.28;;;;;;;17.92;99.42;99616.00;1585252;90;21061;-71
2021/05/28 05:57:38;;;;;;;13.48;12.18;;;;;;;17.92;99.55;99621.44;1585627;90;21017;-71
2021/05/28 06:00:06;;;;;;;14.75;11.75;;;;;;;17.95;99.96;99618.66;1595170;89;21617;-71
2021/05/28 06:02:34;;;;;;;13.78;12.47;;;;;;;18.01;99.97;99612.03;1609580;89;21092;-72
2021/05/28 06:05:02;;;;;;;14.00;11.50;;;;;;;18.06;99.94;99611.38;1580477;89;21144;-75
2021/05/28 06:07:28;;;;;;;10.10;9.03;;;;;;;18.13;99.80;99615.08;1610902;89;21094;-71
2021/05/28 06:09:56;;;;;;;12.80;10.23;;;;;;;18.20;99.44;99608.12;1576236;91;21085;-72
2021/05/28 06:12:22;;;;;;;12.18;10.80;;;;;;;18.18;99.07;99610.32;1573718;89;21060;-72
2021/05/28 06:14:50;;;;;;;10.50;9.53;;;;;;;18.17;98.88;99614.17;1598869;89;21570;-72
2021/05/28 06:17:17;;;;;;;12.55;11.28;;;;;;;18.18;99.02;99614.41;1596124;87;21092;-70
2021/05/28 06:19:43;;;;;;;9.45;8.55;;;;;;;18.23;99.28;99618.39;1555990;91;21597;-72
2021/05/28 06:22:09;;;;;;;13.32;11.97;;;;;;;18.32;99.01;99609.54;1586188;89;21096;-73
2021/05/28 06:24:36;;;;;;;11.43;10.43;;;;;;;18.36;97.79;99614.08;1555971;91;21037;-71
2021/05/28 06:27:03;;;;;;;23.52;19.92;;;;;;;18.36;97.28;99612.72;1585677;90;21080;-71
2021/05/28 06:29:30;;;;;;;29.40;26.20;;;;;;;18.36;97.39;99615.44;1575735;89;21146;-74
2021/05/28 06:31:57;;;;;;;19.25;17.40;;;;;;;18.41;97.29;99610.44;1585963;89;21637;-70
2021/05/28 06:34:23;;;;;;;17.65;15.98;;;;;;;18.40;97.58;99602.83;1598721;89;21127;-70
2021/05/28 06:36:50;;;;;;;22.90;18.90;;;;;;;18.43;97.69;99611.73;1589784;89;21129;-71
2021/05/28 06:39:17;;;;;;;21.82;19.82;;;;;;;18.50;97.88;99602.63;1579064;89;21586;-72
2021/05/28 06:41:44;;;;;;;16.82;15.18;;;;;;;18.54;97.62;99603.65;1590830;89;21054;-70
2021/05/28 06:44:10;;;;;;;15.60;14.10;;;;;;;18.55;97.07;99608.00;1594831;89;21013;-71
2021/05/28 06:46:38;;;;;;;13.20;11.88;;;;;;;18.59;97.02;99605.45;1605589;89;21025;-71
2021/05/28 06:49:05;;;;;;;12.78;10.48;;;;;;;18.64;96.05;99608.08;1576276;89;21118;-71
2021/05/28 06:51:31;;;;;;;12.70;11.38;;;;;;;18.68;95.76;99608.52;1586445;89;21600;-72
2021/05/28 06:53:58;;;;;;;19.10;15.58;;;;;;;18.77;95.85;99610.52;1599083;88;21652;-72
2021/05/28 06:56:26;;;;;;;15.55;11.73;;;;;;;18.82;95.18;99611.77;1585563;90;21645;-70
2021/05/28 06:58:52;;;;;;;13.70;12.37;;;;;;;18.91;94.22;99602.56;1554726;91;21014;-72
2021/05/28 07:01:21;;;;;;;10.45;8.83;;;;;;;18.95;94.01;99605.48;1562305;91;21205;-73
2021/05/28 07:03:48;;;;;;;9.80;8.90;;;;;;;19.06;93.52;99600.05;1583953;90;21633;-70
2021/05/28 07:06:14;;;;;;;11.68;9.85;;;;;;;19.08;91.19;99607.38;1587008;90;21164;-72
2021/05/28 07:08:40;;;;;;;12.88;9.00;;;;;;;19.02;90.86;99601.23;1583099;90;21147;-71
2021/05/28 07:11:09;;;;;;;11.25;8.48;;;;;;;19.11;90.98;99608.12;1562480;90;21111;-72
2021/05/28 07:13:36;;;;;;;8.40;7.28;;;;;;;19.20;90.08;99605.45;1581355;90;21145;-71
2021/05/28 07:16:04;;;;;;;9.25;8.45;;;;;;;19.25;89.31;99609.42;1586976;90;21049;-74
2021/05/28 07:18:30;;;;;;;10.63;9.30;;;;;;;19.30;88.35;99607.95;1587470;90;21127;-82
2021/05/28 07:20:57;;;;;;;13.70;7.72;;;;;;;19.36;87.75;99600.70;1587663;90;21237;-70
2021/05/28 07:23:23;;;;;;;8.50;7.60;;;;;;;19.43;87.52;99603.79;1573480;90;21084;-71
2021/05/28 07:25:50;;;;;;;11.48;7.75;;;;;;;19.50;86.14;99604.77;1586851;90;21010;-69
2021/05/28 07:28:16;;;;;;;10.20;9.03;;;;;;;19.53;86.69;99600.84;1585544;90;21073;-69
2021/05/28 07:30:43;;;;;;;6.92;6.08;;;;;;;19.57;85.88;99603.19;1584557;90;21682;-72
2021/05/28 07:33:10;;;;;;;8.65;7.42;;;;;;;19.57;85.88;99603.19;1585658;89;21030;-73
2021/05/28 07:35:37;;;;;;;7.17;6.40;;;;;;;19.62;85.05;99605.55;1586267;90;21049;-73
2021/05/28 07:38:03;;;;;;;9.15;7.40;;;;;;;19.67;83.98;99597.23;1586863;90;21061;-71
2021/05/28 07:40:30;;;;;;;8.53;7.65;;;;;;;19.74;83.81;99603.06;1586820;90;21644;-71
2021/05/28 07:42:57;;;;;;;8.83;7.92;;;;;;;19.81;83.25;99591.13;1586915;90;21428;-71
2021/05/28 07:45:24;;;;;;;12.45;10.40;;;;;;;19.88;82.77;99595.59;1585943;90;21197;-72
2021/05/28 07:47:51;;;;;;;10.60;9.20;;;;;;;19.86;82.58;99592.36;1585568;90;21571;-73
2021/05/28 07:50:18;;;;;;;9.30;8.50;;;;;;;19.86;82.58;99592.36;1585633;90;21148;-73
2021/05/28 07:52:44;;;;;;;12.78;9.83;;;;;;;19.93;83.44;99586.72;1575116;90;21077;-71
2021/05/28 07:55:11;;;;;;;10.08;7.67;;;;;;;19.98;82.39;99585.22;1586656;90;22312;-71
2021/05/28 07:57:38;;;;;;;9.20;8.50;;;;;;;20.11;81.21;99583.49;1585669;90;21022;-71
2021/05/28 08:00:09;;;;;;;11.95;9.58;;;;;;;20.15;80.18;99588.56;1592098;88;21637;-72
2021/05/28 08:02:35;;;;;;;10.78;9.78;;;;;;;20.13;79.96;99585.36;1590218;89;21029;-73
2021/05/28 08:05:02;;;;;;;9.20;8.35;;;;;;;20.14;80.49;99590.27;1600049;89;21069;-70
2021/05/28 08:07:29;;;;;;;10.50;8.20;;;;;;;20.19;80.49;99586.03;1611010;89;21178;-73
2021/05/28 08:09:55;;;;;;;14.07;10.72;;;;;;;20.31;80.12;99591.71;1600418;89;21010;-72
2021/05/28 08:12:22;;;;;;;9.68;8.78;;;;;;;20.38;78.34;99595.58;1610281;87;21061;-72
2021/05/28 08:14:49;;;;;;;15.15;11.50;;;;;;;20.39;78.73;99586.27;1587292;89;21174;-70
2021/05/28 08:17:15;;;;;;;11.10;9.70;;;;;;;20.49;79.11;99584.36;1588074;89;21125;-73
2021/05/28 08:19:42;;;;;;;11.65;8.85;;;;;;;20.60;78.95;99585.12;1609834;88;21104;-71
2021/05/28 08:22:08;;;;;;;13.25;11.80;;;;;;;20.69;78.59;99583.77;1577286;90;21051;-70
2021/05/28 08:24:35;;;;;;;15.20;9.80;;;;;;;20.72;77.91;99572.99;1588911;89;21530;-71
2021/05/28 08:27:02;;;;;;;13.83;10.20;;;;;;;20.74;77.59;99577.59;1610842;87;21137;-72
2021/05/28 08:29:28;;;;;;;15.40;10.58;;;;;;;20.78;76.81;99579.92;1593372;89;21071;-71
2021/05/28 08:31:54;;;;;;;12.60;10.32;;;;;;;20.86;76.72;99576.38;1593358;90;21155;-73
2021/05/28 08:34:21;;;;;;;10.35;9.25;;;;;;;20.94;75.78;99567.96;1573620;90;21119;-70
2021/05/28 08:36:50;;;;;;;11.68;10.60;;;;;;;21.05;75.20;99569.27;1599760;87;20993;-72
2021/05/28 08:39:16;;;;;;;10.65;8.93;;;;;;;21.13;74.46;99569.01;1608960;89;21656;-73
2021/05/28 08:41:43;;;;;;;14.18;10.82;;;;;;;21.25;74.39;99566.44;1624416;88;21049;-73
2021/05/28 08:44:10;;;;;;;16.67;10.23;;;;;;;21.29;72.99;99562.73;1585846;89;21705;-69
2021/05/28 08:46:37;;;;;;;12.23;9.48;;;;;;;21.32;73.11;99564.03;1561204;90;21187;-72
2021/05/28 08:49:09;;;;;;;9.55;8.60;;;;;;;21.39;72.88;99561.59;1606020;89;21110;-72
2021/05/28 08:51:36;;;;;;;10.48;8.58;;;;;;;21.43;73.30;99549.45;1605787;88;21116;-68
2021/05/28 08:54:04;;;;;;;9.13;8.35;;;;;;;21.41;73.62;99556.61;1611051;89;21089;-70
2021/05/28 08:56:33;;;;;;;11.12;9.40;;;;;;;21.36;72.92;99555.97;1598956;89;22327;-71
2021/05/28 08:58:59;;;;;;;9.28;8.38;;;;;;;21.32;73.07;99551.72;1609579;89;20993;-70
2021/05/28 09:01:26;;;;;;;9.73;8.70;;;;;;;21.40;72.76;99549.53;1600480;88;21775;-75
2021/05/28 09:04:00;;;;;;;9.53;8.73;;;;;;;21.47;72.30;99540.27;1599109;87;21605;-76
2021/05/28 09:06:43;;;;;;;9.45;8.55;;;;;;;21.50;72.17;99546.45;1580994;90;21061;-72
2021/05/28 09:09:19;;;;;;;7.45;6.80;;;;;;;21.52;71.09;99548.31;1593210;88;21134;-73
2021/05/28 09:12:00;;;;;;;11.68;8.53;;;;;;;21.53;70.39;99537.61;1584652;90;21065;-73
2021/05/28 09:14:41;;;;;;;8.90;7.70;;;;;;;21.54;70.95;99541.92;1594646;90;21127;-71
2021/05/28 09:17:10;;;;;;;11.53;8.93;;;;;;;21.62;71.53;99541.13;1594533;89;21655;-74
2021/05/28 09:19:37;;;;;;;15.70;12.58;;;;;;;21.71;71.76;99532.88;1595782;89;21124;-72
2021/05/28 09:22:09;;;;;;;14.73;13.43;;;;;;;21.80;71.65;99538.32;1595851;89;21080;-72
2021/05/28 09:24:40;;;;;;;13.43;11.48;;;;;;;21.86;67.84;99532.91;1583188;89;21001;-72
2021/05/28 09:27:29;;;;;;;13.00;10.70;;;;;;;21.98;66.67;99537.14;1595371;89;21620;-70
2021/05/28 09:30:13;;;;;;;10.43;8.85;;;;;;;22.04;67.00;99539.38;1596121;89;21131;-70
2021/05/28 09:32:46;;;;;;;13.78;11.22;;;;;;;22.05;67.75;99536.08;1593977;88;21218;-73
2021/05/28 09:35:20;;;;;;;10.80;9.90;;;;;;;22.05;66.75;99536.08;1577232;89;21168;-71
2021/05/28 09:37:52;;;;;;;12.95;11.65;;;;;;;22.00;66.75;99532.15;1546141;92;21426;-72
2021/05/28 09:40:26;;;;;;;13.40;12.03;;;;;;;21.98;67.81;99531.67;1571150;91;21084;-71
2021/05/28 09:43:03;;;;;;;13.20;11.65;;;;;;;22.04;67.54;99530.36;1570717;90;21024;-73
2021/05/28 09:45:36;;;;;;;13.03;11.60;;;;;;;22.05;66.74;99534.14;1570035;90;21088;-71
2021/05/28 09:48:06;;;;;;;;;;;;;;;21.99;65.17;99529.98;1571317;91;21076;-70
2021/05/28 09:50:33;;;;;;;13.10;11.90;;;;;;;21.94;65.51;99532.89;1594331;89;20209;-73
2021/05/28 09:53:04;;;;;;;9.70;8.90;;;;;;;21.91;65.10;99528.06;1571800;90;21025;-69
2021/05/28 09:55:35;;;;;;;11.68;9.55;;;;;;;21.90;66.05;99525.08;1592076;89;21136;-71
2021/05/28 09:58:01;;;;;;;10.43;9.35;;;;;;;21.87;67.25;99522.20;1595920;89;21072;-74
2021/05/28 10:00:35;;;;;;;11.57;9.38;;;;;;;21.84;67.58;99520.91;1595194;87;21156;-75
2021/05/28 10:03:23;;;;;;;13.55;11.65;;;;;;;21.87;67.41;99516.72;1586008;88;21107;-73
2021/05/28 10:05:58;;;;;;;10.15;9.10;;;;;;;21.92;67.53;99519.28;1564962;90;21133;-75
2021/05/28 10:08:27;;;;;;;12.47;9.23;;;;;;;21.97;67.76;99511.69;1588757;89;21168;-72
2021/05/28 10:10:59;;;;;;;9.70;8.78;;;;;;;22.02;68.13;99507.95;1592055;89;21121;-72
2021/05/28 10:13:25;;;;;;;9.65;8.63;;;;;;;22.09;67.88;99508.26;1607266;89;21757;-74
2021/05/28 10:15:54;;;;;;;10.13;8.70;;;;;;;22.16;67.54;99500.30;1584884;89;21010;-72
2021/05/28 10:18:22;;;;;;;9.83;9.10;;;;;;;22.30;67.69;99493.23;1564384;90;21061;-70
2021/05/28 10:20:52;;;;;;;11.15;9.95;;;;;;;22.50;66.41;99496.55;1581736;90;21145;-74
2021/05/28 10:23:19;;;;;;;13.98;12.55;;;;;;;22.65;64.60;99499.27;1564305;90;21083;-69
2021/05/28 10:25:46;;;;;;;9.38;8.55;;;;;;;22.63;63.40;99499.62;1564498;90;21676;-74
2021/05/28 10:28:19;;;;;;;10.32;9.38;;;;;;;22.66;63.69;99495.39;1564463;90;21038;-73
2021/05/28 10:30:47;;;;;;;15.65;9.20;;;;;;;22.70;63.26;99497.69;1594806;89;21008;-72
2021/05/28 10:33:18;;;;;;;10.28;9.38;;;;;;;22.79;63.25;99492.97;1593075;88;21582;-73
2021/05/28 10:35:47;;;;;;;11.45;9.88;;;;;;;22.89;62.17;99491.19;1607341;88;21146;-71
2021/05/28 10:38:41;;;;;;;9.85;8.95;;;;;;;22.90;62.50;99486.75;1607430;89;21627;-70
2021/05/28 10:41:18;;;;;;;9.38;8.60;;;;;;;22.99;62.21;99483.92;1587706;89;21093;-72
2021/05/28 10:43:54;;;;;;;10.70;9.80;;;;;;;23.07;62.98;99476.77;1607144;88;21104;-73
2021/05/28 10:46:22;;;;;;;11.28;10.23;;;;;;;23.14;63.40;99472.32;1588034;89;21625;-66
2021/05/28 10:49:11;;;;;;;10.53;8.68;;;;;;;23.12;61.91;99470.47;1606054;89;21057;-70
2021/05/28 10:51:39;;;;;;;9.45;8.53;;;;;;;23.01;61.78;99466.56;1605235;89;21136;-72
2021/05/28 10:54:11;;;;;;;10.30;9.30;;;;;;;22.93;62.01;99468.80;1605530;88;21681;-74
2021/05/28 10:56:43;;;;;;;12.50;8.98;;;;;;;22.94;63.11;99467.10;1587583;89;21613;-69
2021/05/28 10:59:12;;;;;;;9.70;8.80;;;;;;;23.00;64.46;99456.73;1582445;89;21129;-76
2021/05/28 11:01:48;;;;;;;11.12;9.18;;;;;;;23.11;64.36;99451.06;1568076;90;21724;-74
2021/05/28 11:04:21;;;;;;;10.28;8.60;;;;;;;23.23;62.51;99447.53;1562386;91;21869;-74
2021/05/28 11:07:05;;;;;;;9.50;8.70;;;;;;;23.24;62.85;99447.20;1547815;90;21108;-74
2021/05/28 11:09:51;;;;;;;8.73;7.92;;;;;;;23.23;62.49;99448.33;1586819;90;21040;-74
2021/05/28 11:12:29;;;;;;;8.40;7.70;;;;;;;23.21;62.80;99441.03;1586807;90;21104;-71
2021/05/28 11:15:06;;;;;;;9.45;8.65;;;;;;;23.22;62.00;99437.69;1587298;90;21045;-72
2021/05/28 11:17:56;;;;;;;10.28;8.48;;;;;;;23.23;61.91;99426.38;1568544;91;21088;-73
2021/05/28 11:20:29;;;;;;;10.50;9.43;;;;;;;23.26;61.93;99424.91;1562461;90;21134;-72
2021/05/28 11:22:56;;;;;;;12.30;10.13;;;;;;;23.22;62.82;99425.34;1562470;91;21097;-71
2021/05/28 11:25:24;;;;;;;10.82;9.58;;;;;;;23.14;63.22;99418.81;1562136;90;21093;-71